sensor_id;sensor_type;location;lat;lon;timestamp;P1;durP1;ratioP1;P2;durP2;ratioP2
20363;SDS011;10340;53.664;9.908;2023-04-03T00:00:35;0.47;;;0.47;;
20363;SDS011;10340;53.664;9.908;2023-04-03T00:03:02;0.60;;;0.60;;
20363;SDS011;10340;53.664;9.908;2023-04-03T00:05:29;0.70;;;0.70;;
20363;SDS011;10340;53.664;9.908;2023-04-03T00:07:57;0.50;;;0.50;;
20363;SDS011;10340;53.664;9.908;2023-04-03T00:10:24;0.40;;;0.40;;
20363;SDS011;10340;53.664;9.908;2023-04-03T00:12:51;0.50;;;0.50;;
20363;SDS011;10340;53.664;9.908;2023-04-03T00:15:19;0.40;;;0.40;;
20363;SDS011;10340;53.664;9.908;2023-04-03T00:17:46;0.50;;;0.50;;
20363;SDS011;10340;53.664;9.908;2023-04-03T00:20:12;0.60;;;0.60;;
20363;SDS011;10340;53.664;9.908;2023-04-03T00:22:39;0.57;;;0.57;;
20363;SDS011;10340;53.664;9.908;2023-04-03T00:25:08;0.50;;;0.50;;
20363;SDS011;10340;53.664;9.908;2023-04-03T00:27:36;0.50;;;0.50;;
20363;SDS011;10340;53.664;9.908;2023-04-03T00:30:04;0.60;;;0.60;;
20363;SDS011;10340;53.664;9.908;2023-04-03T00:32:33;0.70;;;0.70;;
20363;SDS011;10340;53.664;9.908;2023-04-03T00:35:00;0.50;;;0.50;;
20363;SDS011;10340;53.664;9.908;2023-04-03T00:37:27;0.50;;;0.50;;
20363;SDS011;10340;53.664;9.908;2023-04-03T00:39:54;0.50;;;0.50;;
20363;SDS011;10340;53.664;9.908;2023-04-03T00:42:22;0.60;;;0.60;;
20363;SDS011;10340;53.664;9.908;2023-04-03T00:48:06;0.60;;;0.60;;
20363;SDS011;10340;53.664;9.908;2023-04-03T00:50:36;0.70;;;0.70;;
20363;SDS011;10340;53.664;9.908;2023-04-03T00:53:06;0.60;;;0.60;;
20363;SDS011;10340;53.664;9.908;2023-04-03T00:55:36;0.50;;;0.50;;
20363;SDS011;10340;53.664;9.908;2023-04-03T00:58:06;0.50;;;0.50;;
20363;SDS011;10340;53.664;9.908;2023-04-03T01:00:35;0.60;;;0.60;;
20363;SDS011;10340;53.664;9.908;2023-04-03T01:03:04;0.60;;;0.60;;
20363;SDS011;10340;53.664;9.908;2023-04-03T01:05:31;0.60;;;0.60;;
20363;SDS011;10340;53.664;9.908;2023-04-03T01:07:58;0.70;;;0.70;;
20363;SDS011;10340;53.664;9.908;2023-04-03T01:10:26;0.60;;;0.60;;
20363;SDS011;10340;53.664;9.908;2023-04-03T01:12:53;0.60;;;0.60;;
20363;SDS011;10340;53.664;9.908;2023-04-03T01:15:22;0.50;;;0.50;;
20363;SDS011;10340;53.664;9.908;2023-04-03T01:17:51;0.60;;;0.60;;
20363;SDS011;10340;53.664;9.908;2023-04-03T01:20:42;0.80;;;0.80;;
20363;SDS011;10340;53.664;9.908;2023-04-03T01:23:44;0.67;;;0.67;;
20363;SDS011;10340;53.664;9.908;2023-04-03T01:26:19;0.50;;;0.50;;
20363;SDS011;10340;53.664;9.908;2023-04-03T01:28:46;0.60;;;0.60;;
20363;SDS011;10340;53.664;9.908;2023-04-03T01:31:18;0.60;;;0.60;;
20363;SDS011;10340;53.664;9.908;2023-04-03T01:33:52;0.50;;;0.50;;
20363;SDS011;10340;53.664;9.908;2023-04-03T01:36:20;0.60;;;0.60;;
20363;SDS011;10340;53.664;9.908;2023-04-03T01:38:49;0.57;;;0.57;;
20363;SDS011;10340;53.664;9.908;2023-04-03T01:41:16;0.53;;;0.53;;
20363;SDS011;10340;53.664;9.908;2023-04-03T01:43:43;0.43;;;0.43;;
20363;SDS011;10340;53.664;9.908;2023-04-03T01:46:10;0.70;;;0.70;;
20363;SDS011;10340;53.664;9.908;2023-04-03T01:48:38;0.50;;;0.50;;
20363;SDS011;10340;53.664;9.908;2023-04-03T01:51:06;0.50;;;0.50;;
20363;SDS011;10340;53.664;9.908;2023-04-03T01:53:33;0.70;;;0.70;;
20363;SDS011;10340;53.664;9.908;2023-04-03T01:56:00;0.40;;;0.40;;
20363;SDS011;10340;53.664;9.908;2023-04-03T01:58:27;0.67;;;0.67;;
20363;SDS011;10340;53.664;9.908;2023-04-03T02:00:54;0.50;;;0.50;;
20363;SDS011;10340;53.664;9.908;2023-04-03T02:03:21;0.60;;;0.60;;
20363;SDS011;10340;53.664;9.908;2023-04-03T02:05:49;0.50;;;0.50;;
20363;SDS011;10340;53.664;9.908;2023-04-03T02:08:18;0.70;;;0.70;;
20363;SDS011;10340;53.664;9.908;2023-04-03T02:10:46;0.60;;;0.60;;
20363;SDS011;10340;53.664;9.908;2023-04-03T02:13:14;0.60;;;0.60;;
20363;SDS011;10340;53.664;9.908;2023-04-03T02:15:41;0.50;;;0.50;;
20363;SDS011;10340;53.664;9.908;2023-04-03T02:18:08;0.70;;;0.70;;
20363;SDS011;10340;53.664;9.908;2023-04-03T02:20:35;0.60;;;0.60;;
20363;SDS011;10340;53.664;9.908;2023-04-03T02:23:03;0.70;;;0.70;;
20363;SDS011;10340;53.664;9.908;2023-04-03T02:25:32;0.60;;;0.60;;
20363;SDS011;10340;53.664;9.908;2023-04-03T02:27:59;0.70;;;0.70;;
20363;SDS011;10340;53.664;9.908;2023-04-03T02:30:27;0.70;;;0.70;;
20363;SDS011;10340;53.664;9.908;2023-04-03T02:32:54;0.70;;;0.70;;
20363;SDS011;10340;53.664;9.908;2023-04-03T02:35:21;0.60;;;0.60;;
20363;SDS011;10340;53.664;9.908;2023-04-03T02:37:48;0.80;;;0.80;;
20363;SDS011;10340;53.664;9.908;2023-04-03T02:40:15;0.50;;;0.50;;
20363;SDS011;10340;53.664;9.908;2023-04-03T02:42:43;0.60;;;0.60;;
20363;SDS011;10340;53.664;9.908;2023-04-03T02:45:10;0.70;;;0.70;;
20363;SDS011;10340;53.664;9.908;2023-04-03T02:47:37;0.80;;;0.80;;
20363;SDS011;10340;53.664;9.908;2023-04-03T02:50:04;0.70;;;0.70;;
20363;SDS011;10340;53.664;9.908;2023-04-03T02:52:31;0.60;;;0.60;;
20363;SDS011;10340;53.664;9.908;2023-04-03T02:54:58;0.70;;;0.70;;
20363;SDS011;10340;53.664;9.908;2023-04-03T02:57:25;0.60;;;0.60;;
20363;SDS011;10340;53.664;9.908;2023-04-03T02:59:54;0.70;;;0.70;;
20363;SDS011;10340;53.664;9.908;2023-04-03T03:02:21;0.60;;;0.60;;
20363;SDS011;10340;53.664;9.908;2023-04-03T03:04:48;0.50;;;0.50;;
20363;SDS011;10340;53.664;9.908;2023-04-03T03:07:15;0.70;;;0.70;;
20363;SDS011;10340;53.664;9.908;2023-04-03T03:09:42;0.70;;;0.70;;
20363;SDS011;10340;53.664;9.908;2023-04-03T03:12:09;0.50;;;0.50;;
20363;SDS011;10340;53.664;9.908;2023-04-03T03:14:36;0.60;;;0.60;;
20363;SDS011;10340;53.664;9.908;2023-04-03T03:17:04;0.50;;;0.50;;
20363;SDS011;10340;53.664;9.908;2023-04-03T03:19:31;0.77;;;0.77;;
20363;SDS011;10340;53.664;9.908;2023-04-03T03:21:58;0.63;;;0.63;;
20363;SDS011;10340;53.664;9.908;2023-04-03T03:24:25;0.70;;;0.70;;
20363;SDS011;10340;53.664;9.908;2023-04-03T03:26:52;0.70;;;0.70;;
20363;SDS011;10340;53.664;9.908;2023-04-03T03:29:19;0.60;;;0.60;;
20363;SDS011;10340;53.664;9.908;2023-04-03T03:31:46;0.77;;;0.77;;
20363;SDS011;10340;53.664;9.908;2023-04-03T03:34:14;0.80;;;0.80;;
20363;SDS011;10340;53.664;9.908;2023-04-03T03:36:42;0.80;;;0.80;;
20363;SDS011;10340;53.664;9.908;2023-04-03T03:39:09;0.60;;;0.60;;
20363;SDS011;10340;53.664;9.908;2023-04-03T03:41:37;0.70;;;0.70;;
20363;SDS011;10340;53.664;9.908;2023-04-03T03:44:04;0.67;;;0.67;;
20363;SDS011;10340;53.664;9.908;2023-04-03T03:46:31;0.57;;;0.57;;
20363;SDS011;10340;53.664;9.908;2023-04-03T03:48:58;0.60;;;0.60;;
20363;SDS011;10340;53.664;9.908;2023-04-03T03:51:26;0.60;;;0.60;;
20363;SDS011;10340;53.664;9.908;2023-04-03T03:53:53;0.73;;;0.73;;
20363;SDS011;10340;53.664;9.908;2023-04-03T03:56:21;0.70;;;0.70;;
20363;SDS011;10340;53.664;9.908;2023-04-03T03:58:48;0.53;;;0.53;;
20363;SDS011;10340;53.664;9.908;2023-04-03T04:01:15;0.80;;;0.80;;
20363;SDS011;10340;53.664;9.908;2023-04-03T04:03:43;0.80;;;0.80;;
20363;SDS011;10340;53.664;9.908;2023-04-03T04:06:10;0.83;;;0.83;;
20363;SDS011;10340;53.664;9.908;2023-04-03T04:08:38;0.60;;;0.60;;
20363;SDS011;10340;53.664;9.908;2023-04-03T04:11:05;0.60;;;0.60;;
20363;SDS011;10340;53.664;9.908;2023-04-03T04:13:33;0.60;;;0.60;;
20363;SDS011;10340;53.664;9.908;2023-04-03T04:16:00;0.53;;;0.53;;
20363;SDS011;10340;53.664;9.908;2023-04-03T04:18:28;0.60;;;0.60;;
20363;SDS011;10340;53.664;9.908;2023-04-03T04:20:55;0.73;;;0.73;;
20363;SDS011;10340;53.664;9.908;2023-04-03T04:23:22;0.70;;;0.70;;
20363;SDS011;10340;53.664;9.908;2023-04-03T04:25:50;0.50;;;0.50;;
20363;SDS011;10340;53.664;9.908;2023-04-03T04:28:18;0.70;;;0.70;;
20363;SDS011;10340;53.664;9.908;2023-04-03T04:30:45;0.80;;;0.80;;
20363;SDS011;10340;53.664;9.908;2023-04-03T04:33:12;0.70;;;0.70;;
20363;SDS011;10340;53.664;9.908;2023-04-03T04:35:41;0.60;;;0.60;;
20363;SDS011;10340;53.664;9.908;2023-04-03T04:38:08;0.70;;;0.70;;
20363;SDS011;10340;53.664;9.908;2023-04-03T04:40:35;0.70;;;0.70;;
20363;SDS011;10340;53.664;9.908;2023-04-03T04:43:04;0.60;;;0.60;;
20363;SDS011;10340;53.664;9.908;2023-04-03T04:45:31;0.57;;;0.57;;
20363;SDS011;10340;53.664;9.908;2023-04-03T04:47:58;0.57;;;0.57;;
20363;SDS011;10340;53.664;9.908;2023-04-03T04:50:25;0.70;;;0.70;;
20363;SDS011;10340;53.664;9.908;2023-04-03T04:52:52;0.70;;;0.70;;
20363;SDS011;10340;53.664;9.908;2023-04-03T04:55:19;0.57;;;0.57;;
20363;SDS011;10340;53.664;9.908;2023-04-03T04:57:46;0.63;;;0.63;;
20363;SDS011;10340;53.664;9.908;2023-04-03T05:00:15;0.70;;;0.70;;
20363;SDS011;10340;53.664;9.908;2023-04-03T05:02:43;0.67;;;0.67;;
20363;SDS011;10340;53.664;9.908;2023-04-03T05:05:10;0.80;;;0.80;;
20363;SDS011;10340;53.664;9.908;2023-04-03T05:07:37;0.60;;;0.60;;
20363;SDS011;10340;53.664;9.908;2023-04-03T05:10:04;0.67;;;0.67;;
20363;SDS011;10340;53.664;9.908;2023-04-03T05:12:32;0.60;;;0.60;;
20363;SDS011;10340;53.664;9.908;2023-04-03T05:14:59;0.70;;;0.70;;
20363;SDS011;10340;53.664;9.908;2023-04-03T05:17:28;0.60;;;0.60;;
20363;SDS011;10340;53.664;9.908;2023-04-03T05:19:55;0.70;;;0.70;;
20363;SDS011;10340;53.664;9.908;2023-04-03T05:22:22;0.60;;;0.60;;
20363;SDS011;10340;53.664;9.908;2023-04-03T05:24:49;0.63;;;0.63;;
20363;SDS011;10340;53.664;9.908;2023-04-03T05:27:16;0.80;;;0.80;;
20363;SDS011;10340;53.664;9.908;2023-04-03T05:29:43;0.80;;;0.80;;
20363;SDS011;10340;53.664;9.908;2023-04-03T05:32:10;0.50;;;0.50;;
20363;SDS011;10340;53.664;9.908;2023-04-03T05:34:39;0.70;;;0.70;;
20363;SDS011;10340;53.664;9.908;2023-04-03T05:37:06;0.67;;;0.67;;
20363;SDS011;10340;53.664;9.908;2023-04-03T05:39:33;0.60;;;0.60;;
20363;SDS011;10340;53.664;9.908;2023-04-03T05:42:00;0.60;;;0.60;;
20363;SDS011;10340;53.664;9.908;2023-04-03T05:44:28;0.70;;;0.70;;
20363;SDS011;10340;53.664;9.908;2023-04-03T05:46:55;0.60;;;0.60;;
20363;SDS011;10340;53.664;9.908;2023-04-03T05:49:22;0.60;;;0.60;;
20363;SDS011;10340;53.664;9.908;2023-04-03T05:51:50;0.60;;;0.60;;
20363;SDS011;10340;53.664;9.908;2023-04-03T05:54:18;0.60;;;0.60;;
20363;SDS011;10340;53.664;9.908;2023-04-03T05:56:49;0.60;;;0.60;;
20363;SDS011;10340;53.664;9.908;2023-04-03T05:59:17;0.60;;;0.60;;
20363;SDS011;10340;53.664;9.908;2023-04-03T06:01:45;0.53;;;0.53;;
20363;SDS011;10340;53.664;9.908;2023-04-03T06:04:12;0.50;;;0.50;;
20363;SDS011;10340;53.664;9.908;2023-04-03T06:06:43;0.50;;;0.50;;
20363;SDS011;10340;53.664;9.908;2023-04-03T06:09:13;0.60;;;0.60;;
20363;SDS011;10340;53.664;9.908;2023-04-03T06:11:41;0.53;;;0.53;;
20363;SDS011;10340;53.664;9.908;2023-04-03T06:14:09;0.50;;;0.50;;
20363;SDS011;10340;53.664;9.908;2023-04-03T06:16:36;0.60;;;0.60;;
20363;SDS011;10340;53.664;9.908;2023-04-03T06:19:04;0.53;;;0.53;;
20363;SDS011;10340;53.664;9.908;2023-04-03T06:21:32;0.50;;;0.50;;
20363;SDS011;10340;53.664;9.908;2023-04-03T06:23:59;0.70;;;0.70;;
20363;SDS011;10340;53.664;9.908;2023-04-03T06:26:27;0.70;;;0.70;;
20363;SDS011;10340;53.664;9.908;2023-04-03T06:28:54;0.60;;;0.60;;
20363;SDS011;10340;53.664;9.908;2023-04-03T06:31:22;0.70;;;0.70;;
20363;SDS011;10340;53.664;9.908;2023-04-03T06:33:49;0.50;;;0.50;;
20363;SDS011;10340;53.664;9.908;2023-04-03T06:36:17;0.60;;;0.60;;
20363;SDS011;10340;53.664;9.908;2023-04-03T06:38:46;0.50;;;0.50;;
20363;SDS011;10340;53.664;9.908;2023-04-03T06:41:13;0.53;;;0.53;;
20363;SDS011;10340;53.664;9.908;2023-04-03T06:43:42;0.43;;;0.43;;
20363;SDS011;10340;53.664;9.908;2023-04-03T06:46:12;0.50;;;0.50;;
20363;SDS011;10340;53.664;9.908;2023-04-03T06:48:42;0.60;;;0.60;;
20363;SDS011;10340;53.664;9.908;2023-04-03T06:51:13;0.40;;;0.40;;
20363;SDS011;10340;53.664;9.908;2023-04-03T06:53:44;0.50;;;0.50;;
20363;SDS011;10340;53.664;9.908;2023-04-03T06:56:12;0.50;;;0.50;;
20363;SDS011;10340;53.664;9.908;2023-04-03T06:58:39;0.47;;;0.47;;
20363;SDS011;10340;53.664;9.908;2023-04-03T07:01:08;0.40;;;0.40;;
20363;SDS011;10340;53.664;9.908;2023-04-03T07:03:35;0.53;;;0.53;;
20363;SDS011;10340;53.664;9.908;2023-04-03T07:06:03;0.47;;;0.47;;
20363;SDS011;10340;53.664;9.908;2023-04-03T07:08:32;0.40;;;0.40;;
20363;SDS011;10340;53.664;9.908;2023-04-03T07:10:59;0.40;;;0.40;;
20363;SDS011;10340;53.664;9.908;2023-04-03T07:13:27;0.57;;;0.57;;
20363;SDS011;10340;53.664;9.908;2023-04-03T07:15:54;0.40;;;0.40;;
20363;SDS011;10340;53.664;9.908;2023-04-03T07:18:23;0.50;;;0.50;;
20363;SDS011;10340;53.664;9.908;2023-04-03T07:20:50;0.40;;;0.40;;
20363;SDS011;10340;53.664;9.908;2023-04-03T07:23:17;0.40;;;0.40;;
20363;SDS011;10340;53.664;9.908;2023-04-03T07:25:45;0.47;;;0.47;;
20363;SDS011;10340;53.664;9.908;2023-04-03T07:28:14;0.40;;;0.40;;
20363;SDS011;10340;53.664;9.908;2023-04-03T07:30:42;0.40;;;0.40;;
20363;SDS011;10340;53.664;9.908;2023-04-03T07:33:11;0.40;;;0.40;;
20363;SDS011;10340;53.664;9.908;2023-04-03T07:35:39;0.40;;;0.40;;
20363;SDS011;10340;53.664;9.908;2023-04-03T07:38:07;0.40;;;0.40;;
20363;SDS011;10340;53.664;9.908;2023-04-03T07:40:35;0.40;;;0.40;;
20363;SDS011;10340;53.664;9.908;2023-04-03T07:43:02;0.40;;;0.40;;
20363;SDS011;10340;53.664;9.908;2023-04-03T07:45:34;0.37;;;0.37;;
20363;SDS011;10340;53.664;9.908;2023-04-03T07:48:02;0.40;;;0.40;;
20363;SDS011;10340;53.664;9.908;2023-04-03T07:50:29;0.37;;;0.37;;
20363;SDS011;10340;53.664;9.908;2023-04-03T07:52:58;0.40;;;0.40;;
20363;SDS011;10340;53.664;9.908;2023-04-03T07:55:26;0.30;;;0.30;;
20363;SDS011;10340;53.664;9.908;2023-04-03T07:57:53;0.40;;;0.40;;
20363;SDS011;10340;53.664;9.908;2023-04-03T08:00:21;0.47;;;0.47;;
20363;SDS011;10340;53.664;9.908;2023-04-03T08:02:55;0.43;;;0.43;;
20363;SDS011;10340;53.664;9.908;2023-04-03T08:05:24;0.40;;;0.40;;
20363;SDS011;10340;53.664;9.908;2023-04-03T08:07:52;0.40;;;0.40;;
20363;SDS011;10340;53.664;9.908;2023-04-03T08:13:27;0.30;;;0.30;;
20363;SDS011;10340;53.664;9.908;2023-04-03T08:16:06;0.50;;;0.50;;
20363;SDS011;10340;53.664;9.908;2023-04-03T08:18:46;0.40;;;0.40;;
20363;SDS011;10340;53.664;9.908;2023-04-03T08:21:14;0.40;;;0.40;;
20363;SDS011;10340;53.664;9.908;2023-04-03T08:23:42;0.40;;;0.40;;
20363;SDS011;10340;53.664;9.908;2023-04-03T08:26:14;0.50;;;0.50;;
20363;SDS011;10340;53.664;9.908;2023-04-03T08:28:45;0.37;;;0.37;;
20363;SDS011;10340;53.664;9.908;2023-04-03T08:31:14;0.40;;;0.40;;
20363;SDS011;10340;53.664;9.908;2023-04-03T08:33:46;0.40;;;0.40;;
20363;SDS011;10340;53.664;9.908;2023-04-03T08:36:16;0.30;;;0.30;;
20363;SDS011;10340;53.664;9.908;2023-04-03T08:38:46;0.32;;;0.32;;
20363;SDS011;10340;53.664;9.908;2023-04-03T08:41:25;0.40;;;0.40;;
20363;SDS011;10340;53.664;9.908;2023-04-03T08:44:07;0.40;;;0.40;;
20363;SDS011;10340;53.664;9.908;2023-04-03T08:46:56;0.30;;;0.30;;
20363;SDS011;10340;53.664;9.908;2023-04-03T08:49:39;0.33;;;0.33;;
20363;SDS011;10340;53.664;9.908;2023-04-03T08:52:13;0.30;;;0.30;;
20363;SDS011;10340;53.664;9.908;2023-04-03T08:54:47;0.30;;;0.30;;
20363;SDS011;10340;53.664;9.908;2023-04-03T08:57:26;0.30;;;0.30;;
20363;SDS011;10340;53.664;9.908;2023-04-03T09:00:00;0.30;;;0.30;;
20363;SDS011;10340;53.664;9.908;2023-04-03T09:02:31;0.20;;;0.20;;
20363;SDS011;10340;53.664;9.908;2023-04-03T09:05:15;0.40;;;0.40;;
20363;SDS011;10340;53.664;9.908;2023-04-03T09:08:11;0.30;;;0.30;;
20363;SDS011;10340;53.664;9.908;2023-04-03T09:10:45;0.30;;;0.30;;
20363;SDS011;10340;53.664;9.908;2023-04-03T09:13:18;0.30;;;0.30;;
20363;SDS011;10340;53.664;9.908;2023-04-03T09:15:51;0.50;;;0.50;;
20363;SDS011;10340;53.664;9.908;2023-04-03T09:18:23;0.35;;;0.35;;
20363;SDS011;10340;53.664;9.908;2023-04-03T09:20:58;0.30;;;0.30;;
20363;SDS011;10340;53.664;9.908;2023-04-03T09:23:34;0.40;;;0.40;;
20363;SDS011;10340;53.664;9.908;2023-04-03T09:26:16;0.40;;;0.40;;
20363;SDS011;10340;53.664;9.908;2023-04-03T09:28:48;0.30;;;0.30;;
20363;SDS011;10340;53.664;9.908;2023-04-03T09:31:19;0.40;;;0.40;;
20363;SDS011;10340;53.664;9.908;2023-04-03T09:34:04;0.40;;;0.40;;
20363;SDS011;10340;53.664;9.908;2023-04-03T09:36:53;0.30;;;0.30;;
20363;SDS011;10340;53.664;9.908;2023-04-03T09:39:48;0.30;;;0.30;;
20363;SDS011;10340;53.664;9.908;2023-04-03T09:42:21;0.32;;;0.32;;
20363;SDS011;10340;53.664;9.908;2023-04-03T09:44:54;0.40;;;0.40;;
20363;SDS011;10340;53.664;9.908;2023-04-03T09:50:15;0.40;;;0.40;;
20363;SDS011;10340;53.664;9.908;2023-04-03T09:53:38;0.32;;;0.32;;
20363;SDS011;10340;53.664;9.908;2023-04-03T09:56:21;0.30;;;0.30;;
20363;SDS011;10340;53.664;9.908;2023-04-03T10:01:55;0.40;;;0.40;;
20363;SDS011;10340;53.664;9.908;2023-04-03T10:04:24;0.43;;;0.43;;
20363;SDS011;10340;53.664;9.908;2023-04-03T10:06:57;0.40;;;0.40;;
20363;SDS011;10340;53.664;9.908;2023-04-03T10:09:37;0.40;;;0.40;;
20363;SDS011;10340;53.664;9.908;2023-04-03T10:12:08;0.30;;;0.30;;
20363;SDS011;10340;53.664;9.908;2023-04-03T10:14:37;0.38;;;0.38;;
20363;SDS011;10340;53.664;9.908;2023-04-03T10:17:12;0.30;;;0.30;;
20363;SDS011;10340;53.664;9.908;2023-04-03T10:19:46;0.30;;;0.30;;
20363;SDS011;10340;53.664;9.908;2023-04-03T10:22:27;0.32;;;0.32;;
20363;SDS011;10340;53.664;9.908;2023-04-03T10:25:20;0.40;;;0.40;;
20363;SDS011;10340;53.664;9.908;2023-04-03T10:27:58;0.40;;;0.40;;
20363;SDS011;10340;53.664;9.908;2023-04-03T10:30:35;0.30;;;0.30;;
20363;SDS011;10340;53.664;9.908;2023-04-03T10:33:22;0.30;;;0.30;;
20363;SDS011;10340;53.664;9.908;2023-04-03T10:36:02;0.30;;;0.30;;
20363;SDS011;10340;53.664;9.908;2023-04-03T10:38:59;0.40;;;0.40;;
20363;SDS011;10340;53.664;9.908;2023-04-03T10:41:39;0.30;;;0.30;;
20363;SDS011;10340;53.664;9.908;2023-04-03T10:44:20;0.30;;;0.30;;
20363;SDS011;10340;53.664;9.908;2023-04-03T10:47:02;0.30;;;0.30;;
20363;SDS011;10340;53.664;9.908;2023-04-03T10:49:38;0.30;;;0.30;;
20363;SDS011;10340;53.664;9.908;2023-04-03T10:52:29;0.30;;;0.30;;
20363;SDS011;10340;53.664;9.908;2023-04-03T10:55:07;0.38;;;0.38;;
20363;SDS011;10340;53.664;9.908;2023-04-03T10:57:47;0.22;;;0.22;;
20363;SDS011;10340;53.664;9.908;2023-04-03T11:00:16;0.32;;;0.32;;
20363;SDS011;10340;53.664;9.908;2023-04-03T11:03:05;0.40;;;0.40;;
20363;SDS011;10340;53.664;9.908;2023-04-03T11:05:45;0.40;;;0.40;;
20363;SDS011;10340;53.664;9.908;2023-04-03T11:08:33;0.30;;;0.30;;
20363;SDS011;10340;53.664;9.908;2023-04-03T11:11:05;0.30;;;0.30;;
20363;SDS011;10340;53.664;9.908;2023-04-03T11:13:37;0.30;;;0.30;;
20363;SDS011;10340;53.664;9.908;2023-04-03T11:16:09;0.40;;;0.40;;
20363;SDS011;10340;53.664;9.908;2023-04-03T11:18:44;0.30;;;0.30;;
20363;SDS011;10340;53.664;9.908;2023-04-03T11:21:19;0.30;;;0.30;;
20363;SDS011;10340;53.664;9.908;2023-04-03T11:23:50;0.20;;;0.20;;
20363;SDS011;10340;53.664;9.908;2023-04-03T11:26:19;0.30;;;0.30;;
20363;SDS011;10340;53.664;9.908;2023-04-03T11:28:52;0.30;;;0.30;;
20363;SDS011;10340;53.664;9.908;2023-04-03T11:31:32;0.30;;;0.30;;
20363;SDS011;10340;53.664;9.908;2023-04-03T11:34:11;0.30;;;0.30;;
20363;SDS011;10340;53.664;9.908;2023-04-03T11:36:53;0.30;;;0.30;;
20363;SDS011;10340;53.664;9.908;2023-04-03T11:39:23;0.30;;;0.30;;
20363;SDS011;10340;53.664;9.908;2023-04-03T11:41:56;0.30;;;0.30;;
20363;SDS011;10340;53.664;9.908;2023-04-03T11:44:41;0.30;;;0.30;;
20363;SDS011;10340;53.664;9.908;2023-04-03T11:47:09;0.20;;;0.20;;
20363;SDS011;10340;53.664;9.908;2023-04-03T11:49:59;0.22;;;0.22;;
20363;SDS011;10340;53.664;9.908;2023-04-03T11:55:58;0.38;;;0.38;;
20363;SDS011;10340;53.664;9.908;2023-04-03T12:14:04;0.38;;;0.38;;
20363;SDS011;10340;53.664;9.908;2023-04-03T12:17:12;0.30;;;0.30;;
20363;SDS011;10340;53.664;9.908;2023-04-03T12:19:48;0.30;;;0.30;;
20363;SDS011;10340;53.664;9.908;2023-04-03T12:22:25;0.30;;;0.30;;
20363;SDS011;10340;53.664;9.908;2023-04-03T12:24:55;0.30;;;0.30;;
20363;SDS011;10340;53.664;9.908;2023-04-03T12:27:25;0.40;;;0.40;;
20363;SDS011;10340;53.664;9.908;2023-04-03T12:33:02;0.30;;;0.30;;
20363;SDS011;10340;53.664;9.908;2023-04-03T12:35:57;0.30;;;0.30;;
20363;SDS011;10340;53.664;9.908;2023-04-03T12:38:48;0.20;;;0.20;;
20363;SDS011;10340;53.664;9.908;2023-04-03T12:41:46;0.30;;;0.30;;
20363;SDS011;10340;53.664;9.908;2023-04-03T12:44:24;0.40;;;0.40;;
20363;SDS011;10340;53.664;9.908;2023-04-03T12:47:02;0.30;;;0.30;;
20363;SDS011;10340;53.664;9.908;2023-04-03T12:49:46;0.35;;;0.35;;
20363;SDS011;10340;53.664;9.908;2023-04-03T12:52:20;0.30;;;0.30;;
20363;SDS011;10340;53.664;9.908;2023-04-03T12:55:20;0.30;;;0.30;;
20363;SDS011;10340;53.664;9.908;2023-04-03T12:58:16;0.30;;;0.30;;
20363;SDS011;10340;53.664;9.908;2023-04-03T13:01:09;0.20;;;0.20;;
20363;SDS011;10340;53.664;9.908;2023-04-03T13:04:05;0.22;;;0.22;;
20363;SDS011;10340;53.664;9.908;2023-04-03T13:06:37;0.40;;;0.40;;
20363;SDS011;10340;53.664;9.908;2023-04-03T13:09:24;0.28;;;0.28;;
20363;SDS011;10340;53.664;9.908;2023-04-03T13:12:13;0.32;;;0.32;;
20363;SDS011;10340;53.664;9.908;2023-04-03T13:14:55;0.20;;;0.20;;
20363;SDS011;10340;53.664;9.908;2023-04-03T13:17:43;0.30;;;0.30;;
20363;SDS011;10340;53.664;9.908;2023-04-03T13:20:17;0.20;;;0.20;;
20363;SDS011;10340;53.664;9.908;2023-04-03T13:22:48;0.30;;;0.30;;
20363;SDS011;10340;53.664;9.908;2023-04-03T13:25:23;0.32;;;0.32;;
20363;SDS011;10340;53.664;9.908;2023-04-03T13:27:51;0.30;;;0.30;;
20363;SDS011;10340;53.664;9.908;2023-04-03T13:30:30;0.30;;;0.30;;
20363;SDS011;10340;53.664;9.908;2023-04-03T13:33:20;0.40;;;0.40;;
20363;SDS011;10340;53.664;9.908;2023-04-03T13:35:56;0.20;;;0.20;;
20363;SDS011;10340;53.664;9.908;2023-04-03T13:38:26;0.28;;;0.28;;
20363;SDS011;10340;53.664;9.908;2023-04-03T13:41:03;0.30;;;0.30;;
20363;SDS011;10340;53.664;9.908;2023-04-03T13:47:40;0.30;;;0.30;;
20363;SDS011;10340;53.664;9.908;2023-04-03T13:50:16;0.30;;;0.30;;
20363;SDS011;10340;53.664;9.908;2023-04-03T13:53:00;0.20;;;0.20;;
20363;SDS011;10340;53.664;9.908;2023-04-03T13:55:30;0.32;;;0.32;;
20363;SDS011;10340;53.664;9.908;2023-04-03T13:57:59;0.30;;;0.30;;
20363;SDS011;10340;53.664;9.908;2023-04-03T14:00:30;0.30;;;0.30;;
20363;SDS011;10340;53.664;9.908;2023-04-03T14:03:01;0.30;;;0.30;;
20363;SDS011;10340;53.664;9.908;2023-04-03T14:05:36;0.28;;;0.28;;
20363;SDS011;10340;53.664;9.908;2023-04-03T14:08:06;0.30;;;0.30;;
20363;SDS011;10340;53.664;9.908;2023-04-03T14:10:35;0.38;;;0.38;;
20363;SDS011;10340;53.664;9.908;2023-04-03T14:13:02;0.22;;;0.22;;
20363;SDS011;10340;53.664;9.908;2023-04-03T14:15:30;0.38;;;0.38;;
20363;SDS011;10340;53.664;9.908;2023-04-03T14:17:58;0.30;;;0.30;;
20363;SDS011;10340;53.664;9.908;2023-04-03T14:20:26;0.32;;;0.32;;
20363;SDS011;10340;53.664;9.908;2023-04-03T14:22:54;0.25;;;0.25;;
20363;SDS011;10340;53.664;9.908;2023-04-03T14:25:22;0.20;;;0.20;;
20363;SDS011;10340;53.664;9.908;2023-04-03T14:27:51;0.30;;;0.30;;
20363;SDS011;10340;53.664;9.908;2023-04-03T14:30:21;0.30;;;0.30;;
20363;SDS011;10340;53.664;9.908;2023-04-03T14:32:50;0.30;;;0.30;;
20363;SDS011;10340;53.664;9.908;2023-04-03T14:35:18;0.20;;;0.20;;
20363;SDS011;10340;53.664;9.908;2023-04-03T14:37:45;0.30;;;0.30;;
20363;SDS011;10340;53.664;9.908;2023-04-03T14:40:16;0.30;;;0.30;;
20363;SDS011;10340;53.664;9.908;2023-04-03T14:42:45;0.30;;;0.30;;
20363;SDS011;10340;53.664;9.908;2023-04-03T14:45:14;0.20;;;0.20;;
20363;SDS011;10340;53.664;9.908;2023-04-03T14:47:43;0.25;;;0.25;;
20363;SDS011;10340;53.664;9.908;2023-04-03T14:50:15;0.30;;;0.30;;
20363;SDS011;10340;53.664;9.908;2023-04-03T14:52:44;0.20;;;0.20;;
20363;SDS011;10340;53.664;9.908;2023-04-03T14:55:12;0.30;;;0.30;;
20363;SDS011;10340;53.664;9.908;2023-04-03T14:57:42;0.30;;;0.30;;
20363;SDS011;10340;53.664;9.908;2023-04-03T15:00:11;0.30;;;0.30;;
20363;SDS011;10340;53.664;9.908;2023-04-03T15:02:40;0.30;;;0.30;;
20363;SDS011;10340;53.664;9.908;2023-04-03T15:05:09;0.30;;;0.30;;
20363;SDS011;10340;53.664;9.908;2023-04-03T15:07:38;0.25;;;0.25;;
20363;SDS011;10340;53.664;9.908;2023-04-03T15:10:15;0.30;;;0.30;;
20363;SDS011;10340;53.664;9.908;2023-04-03T15:12:44;0.20;;;0.20;;
20363;SDS011;10340;53.664;9.908;2023-04-03T15:15:13;0.32;;;0.32;;
20363;SDS011;10340;53.664;9.908;2023-04-03T15:17:41;0.40;;;0.40;;
20363;SDS011;10340;53.664;9.908;2023-04-03T15:20:12;0.30;;;0.30;;
20363;SDS011;10340;53.664;9.908;2023-04-03T15:22:40;0.40;;;0.40;;
20363;SDS011;10340;53.664;9.908;2023-04-03T15:25:07;0.30;;;0.30;;
20363;SDS011;10340;53.664;9.908;2023-04-03T15:27:37;0.30;;;0.30;;
20363;SDS011;10340;53.664;9.908;2023-04-03T15:30:05;0.32;;;0.32;;
20363;SDS011;10340;53.664;9.908;2023-04-03T15:32:34;0.30;;;0.30;;
20363;SDS011;10340;53.664;9.908;2023-04-03T15:35:01;0.30;;;0.30;;
20363;SDS011;10340;53.664;9.908;2023-04-03T15:37:28;0.30;;;0.30;;
20363;SDS011;10340;53.664;9.908;2023-04-03T15:39:55;0.30;;;0.30;;
20363;SDS011;10340;53.664;9.908;2023-04-03T15:42:23;0.40;;;0.40;;
20363;SDS011;10340;53.664;9.908;2023-04-03T15:44:51;0.30;;;0.30;;
20363;SDS011;10340;53.664;9.908;2023-04-03T15:47:18;0.22;;;0.22;;
20363;SDS011;10340;53.664;9.908;2023-04-03T15:49:45;0.35;;;0.35;;
20363;SDS011;10340;53.664;9.908;2023-04-03T15:52:13;0.32;;;0.32;;